Time;durP1;ratioP1;P1;durP2;ratioP2;P2;SDS_P1;SDS_P2;PMS_P1;PMS_P2;Temp;Humidity;BMP_temperature;BMP_pressure;BME280_temperature;BME280_humidity;BME280_pressure;Samples;Min_cycle;Max_cycle;Signal;HPM_P1;HPM_P2
2023/02/21 02:15:40;;;;;;;;;;;;;;;10.74;36.52;99820.41;5070560;28;20400;-42
2023/02/21 02:18:17;;;;;;;;;;;;;;;10.68;36.79;99821.22;5070441;28;20287;-42
2023/02/21 02:20:49;;;;;;;;;;;;;;;10.61;36.11;99815.88;5070119;28;19943;-42
2023/02/21 02:23:32;;;;;;;;;;;;;;;10.68;36.78;99813.22;5070221;28;19956;-42
2023/02/21 02:26:16;;;;;;;;;;;;;;;10.78;36.12;99808.34;5070746;28;19916;-42
2023/02/21 02:28:59;;;;;;;;;;;;;;;10.63;36.76;99811.19;5070288;28;20380;-42
2023/02/21 02:31:40;;;;;;;;;;;;;;;10.31;36.91;99812.75;5074081;28;19920;-42
2023/02/21 02:34:05;;;;;;;;;;;;;;;10.44;36.81;99809.31;5074179;28;20043;-43
2023/02/21 02:36:38;;;;;;;;;;;;;;;10.37;37.43;99803.94;5074035;28;19958;-42
2023/02/21 02:39:22;;;;;;;;;;;;;;;10.42;36.79;99806.03;5073775;28;19909;-42
2023/02/21 02:42:06;;;;;;;;;;;;;;;10.32;36.85;99801.09;5073839;28;19977;-42
2023/02/21 02:44:52;;;;;;;;;;;;;;;10.32;37.35;99799.25;5073936;28;19924;-42
2023/02/21 02:47:22;;;;;;;;;;;;;;;10.54;36.70;99799.09;5074004;28;19919;-42
2023/02/21 02:49:49;;;;;;;;;;;;;;;10.46;36.74;99794.78;5073950;28;20003;-42
2023/02/21 02:52:14;;;;;;;;;;;;;;;10.63;37.03;99781.91;5073672;28;20356;-42
2023/02/21 02:54:40;;;;;;;;;;;;;;;10.40;36.79;99789.44;5073714;28;19923;-41
2023/02/21 02:57:09;;;;;;;;;;;;;;;9.88;37.47;99787.19;5073580;28;20007;-41
2023/02/21 02:59:36;;;;;;;;;;;;;;;10.14;37.54;99780.31;5073558;28;19917;-42
2023/02/21 03:02:14;;;;;;;;;;;;;;;10.40;37.23;99784.13;5073463;28;19920;-42
2023/02/21 03:04:57;;;;;;;;;;;;;;;10.08;36.98;99779.28;5073517;28;19920;-42
2023/02/21 03:07:23;;;;;;;;;;;;;;;10.31;37.27;99778.16;5073751;28;19923;-41
2023/02/21 03:09:48;;;;;;;;;;;;;;;10.11;36.96;99778.06;5073537;28;19913;-42
2023/02/21 03:12:31;;;;;;;;;;;;;;;10.30;36.95;99772.03;5073396;28;19942;-41
2023/02/21 03:15:03;;;;;;;;;;;;;;;10.36;36.83;99768.56;5073362;28;19916;-42
2023/02/21 03:17:30;;;;;;;;;;;;;;;10.57;36.31;99780.88;5073134;28;20050;-42
2023/02/21 03:19:57;;;;;;;;;;;;;;;10.30;36.43;99780.00;5073460;28;19913;-42
2023/02/21 03:22:25;;;;;;;;;;;;;;;10.33;36.99;99778.78;5072929;28;19959;-41
2023/02/21 03:24:52;;;;;;;;;;;;;;;10.06;37.46;99781.31;5072838;28;19928;-41
2023/02/21 03:27:19;;;;;;;;;;;;;;;10.24;37.18;99782.59;5073079;28;19952;-42
2023/02/21 03:29:45;;;;;;;;;;;;;;;10.42;36.82;99782.09;5073323;28;19998;-41
2023/02/21 03:34:45;;;;;;;;;;;;;;;10.59;36.25;99793.16;5073055;28;20294;-41
2023/02/21 03:37:19;;;;;;;;;;;;;;;10.56;36.03;99781.88;5072752;28;19949;-41
2023/02/21 03:39:44;;;;;;;;;;;;;;;10.49;36.28;99785.56;5072723;28;20372;-41
2023/02/21 03:42:09;;;;;;;;;;;;;;;10.77;35.98;99785.41;5072475;28;19928;-41
2023/02/21 03:44:34;;;;;;;;;;;;;;;10.68;36.53;99792.78;5090597;28;20013;-41
2023/02/21 03:47:00;;;;;;;;;;;;;;;10.68;36.23;99790.13;5093014;28;19913;-41
2023/02/21 03:49:25;;;;;;;;;;;;;;;10.52;36.20;99795.81;5092883;28;19946;-41
2023/02/21 03:51:50;;;;;;;;;;;;;;;10.51;36.81;99795.00;5092592;28;19916;-41
2023/02/21 03:54:16;;;;;;;;;;;;;;;10.69;35.68;99793.59;5092769;28;19912;-42
2023/02/21 03:56:41;;;;;;;;;;;;;;;10.96;35.71;99791.75;5092765;28;19911;-41
2023/02/21 03:59:06;;;;;;;;;;;;;;;10.90;35.99;99805.88;5092947;28;19912;-41
2023/02/21 04:01:31;;;;;;;;;;;;;;;10.78;35.67;99805.69;5092915;28;20302;-41
2023/02/21 04:03:57;;;;;;;;;;;;;;;10.91;35.52;99808.34;5092714;28;19912;-42
2023/02/21 04:06:22;;;;;;;;;;;;;;;10.50;36.69;99800.50;5086574;28;20358;-43
2023/02/21 04:08:47;;;;;;;;;;;;;;;10.70;35.90;99796.06;5091385;28;20285;-43
2023/02/21 04:11:16;;;;;;;;;;;;;;;10.83;35.54;99795.22;5084765;28;20445;-42
2023/02/21 04:13:42;;;;;;;;;;;;;;;10.77;35.71;99785.41;5092456;28;20348;-42
2023/02/21 04:16:07;;;;;;;;;;;;;;;10.74;36.15;99786.63;5092300;28;20051;-42
2023/02/21 04:18:32;;;;;;;;;;;;;;;10.84;35.88;99791.53;5086425;28;19995;-43
2023/02/21 04:20:57;;;;;;;;;;;;;;;11.13;35.97;99786.84;5087264;28;19912;-42
2023/02/21 04:23:23;;;;;;;;;;;;;;;11.12;35.88;99785.22;5091994;28;20011;-42
2023/02/21 04:25:48;;;;;;;;;;;;;;;11.06;36.11;99780.69;5092260;28;19919;-42
2023/02/21 04:28:13;;;;;;;;;;;;;;;10.87;36.05;99795.63;5092201;28;19959;-42
2023/02/21 04:30:39;;;;;;;;;;;;;;;10.83;36.87;99781.09;5092293;28;19912;-43
2023/02/21 04:33:04;;;;;;;;;;;;;;;11.02;36.32;99798.09;5092445;28;19912;-43
2023/02/21 04:35:29;;;;;;;;;;;;;;;11.10;36.13;99792.56;5091860;28;19912;-42
2023/02/21 04:37:55;;;;;;;;;;;;;;;11.04;35.62;99796.91;5092097;28;20050;-42
2023/02/21 04:40:20;;;;;;;;;;;;;;;11.23;35.53;99803.25;5091958;28;20382;-42
2023/02/21 04:42:46;;;;;;;;;;;;;;;11.25;35.03;99793.19;5092527;28;19926;-42
2023/02/21 04:45:11;;;;;;;;;;;;;;;11.14;35.88;99802.63;5092410;28;19920;-43
2023/02/21 04:47:36;;;;;;;;;;;;;;;11.23;35.27;99805.91;5092078;28;19912;-43
2023/02/21 04:50:02;;;;;;;;;;;;;;;11.23;35.69;99807.72;5092033;28;19916;-43
2023/02/21 04:52:28;;;;;;;;;;;;;;;11.11;35.96;99812.84;5091298;28;19934;-43
2023/02/21 04:54:53;;;;;;;;;;;;;;;11.09;35.39;99809.59;5092140;28;20419;-43
2023/02/21 04:57:18;;;;;;;;;;;;;;;11.25;35.61;99816.31;5091719;28;20273;-43
2023/02/21 04:59:44;;;;;;;;;;;;;;;10.84;35.05;99804.84;5091864;28;19912;-42
2023/02/21 05:02:09;;;;;;;;;;;;;;;10.83;35.46;99815.69;5103167;28;19923;-43
2023/02/21 05:04:35;;;;;;;;;;;;;;;10.77;35.25;99814.66;5091810;28;19912;-42
2023/02/21 05:07:00;;;;;;;;;;;;;;;11.17;34.46;99808.56;5091794;28;19912;-43
2023/02/21 05:09:26;;;;;;;;;;;;;;;10.73;35.88;99805.47;5081295;28;19989;-43
2023/02/21 05:11:51;;;;;;;;;;;;;;;10.67;35.24;99815.06;5071703;28;20583;-43
2023/02/21 05:14:17;;;;;;;;;;;;;;;10.54;35.53;99807.06;5071322;28;20027;-42
2023/02/21 05:16:43;;;;;;;;;;;;;;;10.50;35.65;99814.63;5071263;28;19927;-42
2023/02/21 05:19:08;;;;;;;;;;;;;;;10.72;35.63;99809.97;5071416;28;20296;-42
2023/02/21 05:21:36;;;;;;;;;;;;;;;10.73;35.47;99816.91;5071247;28;20288;-42
2023/02/21 05:24:03;;;;;;;;;;;;;;;10.74;35.57;99821.22;5070948;28;19921;-41
2023/02/21 05:26:31;;;;;;;;;;;;;;;10.86;35.05;99824.09;5071238;28;19999;-41
2023/02/21 05:28:59;;;;;;;;;;;;;;;10.73;35.39;99827.56;5070503;28;20155;-42
2023/02/21 05:31:24;;;;;;;;;;;;;;;10.68;35.73;99823.88;5070614;28;20288;-42
2023/02/21 05:33:49;;;;;;;;;;;;;;;10.59;35.65;99838.41;5071151;28;19987;-41
2023/02/21 05:36:16;;;;;;;;;;;;;;;10.67;36.02;99824.91;5071172;28;19942;-41
2023/02/21 05:38:45;;;;;;;;;;;;;;;10.88;35.29;99823.91;5075445;28;19935;-42
2023/02/21 05:41:11;;;;;;;;;;;;;;;10.67;35.97;99832.88;5091064;28;19916;-43
2023/02/21 05:43:36;;;;;;;;;;;;;;;10.79;35.78;99833.91;5101054;28;20279;-43
2023/02/21 05:46:01;;;;;;;;;;;;;;;10.77;36.60;99833.31;5098761;28;19920;-41
2023/02/21 05:48:27;;;;;;;;;;;;;;;11.10;35.57;99828.03;5089145;28;20008;-42
2023/02/21 05:50:52;;;;;;;;;;;;;;;11.20;35.19;99832.94;5090803;28;19916;-42
2023/02/21 05:53:17;;;;;;;;;;;;;;;11.24;35.83;99844.81;5090423;28;19936;-42
2023/02/21 05:55:42;;;;;;;;;;;;;;;11.14;35.85;99844.41;5090170;28;19925;-42
2023/02/21 05:58:08;;;;;;;;;;;;;;;11.20;35.19;99843.59;5090242;28;20003;-41
2023/02/21 06:00:33;;;;;;;;;;;;;;;11.09;35.77;99844.19;5089930;28;20003;-43
2023/02/21 06:02:58;;;;;;;;;;;;;;;11.11;36.26;99840.31;5090166;28;19916;-42
2023/02/21 06:05:24;;;;;;;;;;;;;;;11.13;36.34;99842.78;5093983;28;19919;-43
2023/02/21 06:07:49;;;;;;;;;;;;;;;11.39;35.95;99846.47;5094243;28;19913;-42
2023/02/21 06:10:15;;;;;;;;;;;;;;;11.26;35.89;99840.09;5093861;28;19919;-42
2023/02/21 06:12:41;;;;;;;;;;;;;;;11.24;35.97;99833.34;5094121;28;19916;-41
2023/02/21 06:15:07;;;;;;;;;;;;;;;11.28;35.61;99834.56;5094136;28;20003;-41
2023/02/21 06:17:33;;;;;;;;;;;;;;;11.63;35.45;99839.66;5088117;28;20019;-42
2023/02/21 06:19:58;;;;;;;;;;;;;;;11.68;35.71;99843.34;5088419;28;19912;-41
2023/02/21 06:22:23;;;;;;;;;;;;;;;11.75;34.97;99840.66;5093696;28;20316;-42
2023/02/21 06:24:49;;;;;;;;;;;;;;;11.91;34.64;99847.41;5093096;28;19927;-42
2023/02/21 06:27:14;;;;;;;;;;;;;;;12.36;34.62;99852.00;5093060;28;19920;-43
2023/02/21 06:29:39;;;;;;;;;;;;;;;12.51;33.89;99855.19;5093068;28;20011;-43
2023/02/21 06:32:05;;;;;;;;;;;;;;;12.29;34.00;99855.47;5092862;28;20390;-42
2023/02/21 06:34:30;;;;;;;;;;;;;;;12.24;34.49;99857.16;5092917;28;20037;-42
2023/02/21 06:36:55;;;;;;;;;;;;;;;12.26;35.29;99847.91;5092426;28;20383;-43
2023/02/21 06:39:21;;;;;;;;;;;;;;;12.07;35.12;99846.97;5093262;28;19952;-42
2023/02/21 06:41:48;;;;;;;;;;;;;;;12.58;33.79;99847.13;5092727;28;20003;-42
2023/02/21 06:44:13;;;;;;;;;;;;;;;12.76;33.58;99847.25;5092528;28;20032;-41
2023/02/21 06:46:38;;;;;;;;;;;;;;;13.27;33.16;99843.59;5092926;28;20401;-44
2023/02/21 06:49:04;;;;;;;;;;;;;;;13.97;32.47;99834.47;5092993;28;19919;-41
2023/02/21 06:51:33;;;;;;;;;;;;;;;14.03;32.17;99824.72;5093134;28;19919;-43
2023/02/21 06:53:59;;;;;;;;;;;;;;;14.21;32.17;99826.59;5092403;28;19927;-44
2023/02/21 06:56:24;;;;;;;;;;;;;;;14.17;32.47;99831.56;5092909;28;20311;-44
2023/02/21 06:58:50;;;;;;;;;;;;;;;13.79;32.81;99826.47;5092535;28;19923;-41
2023/02/21 07:01:15;;;;;;;;;;;;;;;13.74;32.81;99835.13;5092424;28;19912;-42
2023/02/21 07:03:42;;;;;;;;;;;;;;;14.08;32.56;99831.06;5091311;28;20029;-42
2023/02/21 07:06:07;;;;;;;;;;;;;;;13.94;32.67;99834.13;5092234;28;20030;-42
2023/02/21 07:08:33;;;;;;;;;;;;;;;13.41;33.27;99825.59;5092053;28;19916;-43
2023/02/21 07:10:58;;;;;;;;;;;;;;;13.50;33.96;99826.16;5092919;28;19912;-41
2023/02/21 07:13:23;;;;;;;;;;;;;;;14.06;33.00;99819.75;5092262;28;19912;-42
2023/02/21 07:15:48;;;;;;;;;;;;;;;14.27;32.50;99804.28;5090147;28;19912;-42
2023/02/21 07:18:14;;;;;;;;;;;;;;;13.89;33.00;99814.19;5090513;28;20253;-42
2023/02/21 07:20:39;;;;;;;;;;;;;;;13.58;34.04;99804.47;5090920;28;19931;-40
2023/02/21 07:23:04;;;;;;;;;;;;;;;14.12;33.18;99801.19;5090221;28;19958;-43
2023/02/21 07:25:30;;;;;;;;;;;;;;;14.03;33.18;99804.16;5090773;28;19942;-42
2023/02/21 07:27:55;;;;;;;;;;;;;;;14.15;33.21;99809.56;5091075;28;19954;-42
2023/02/21 07:30:20;;;;;;;;;;;;;;;13.96;33.35;99799.94;5091241;28;19916;-43
2023/02/21 07:32:46;;;;;;;;;;;;;;;14.18;32.53;99810.97;5090580;28;19923;-41
2023/02/21 07:35:11;;;;;;;;;;;;;;;14.21;32.95;99810.53;5090749;28;19943;-43
2023/02/21 07:37:37;;;;;;;;;;;;;;;14.38;32.92;99816.09;5091022;28;19992;-44
2023/02/21 07:40:03;;;;;;;;;;;;;;;14.33;32.24;99787.31;5091564;28;19916;-43
2023/02/21 07:42:28;;;;;;;;;;;;;;;14.30;32.79;99805.66;5091767;28;19912;-42
2023/02/21 07:44:54;;;;;;;;;;;;;;;14.59;32.51;99806.75;5091785;28;20018;-43
2023/02/21 07:47:19;;;;;;;;;;;;;;;15.15;31.77;99801.97;5092220;28;19938;-43
2023/02/21 07:49:45;;;;;;;;;;;;;;;14.69;33.13;99801.66;5091725;28;20337;-42
2023/02/21 07:52:10;;;;;;;;;;;;;;;14.46;32.56;99803.19;5091846;28;19934;-43
2023/02/21 07:54:35;;;;;;;;;;;;;;;14.26;32.60;99791.94;5091320;28;20381;-43
2023/02/21 07:57:01;;;;;;;;;;;;;;;14.86;31.17;99778.50;5091479;28;19912;-43
2023/02/21 07:59:26;;;;;;;;;;;;;;;14.66;32.00;99783.38;5091366;28;20215;-45
2023/02/21 08:01:51;;;;;;;;;;;;;;;14.63;31.81;99775.78;5091838;28;19916;-43
2023/02/21 08:04:20;;;;;;;;;;;;;;;14.75;31.80;99779.31;5091810;28;19981;-43
2023/02/21 08:06:45;;;;;;;;;;;;;;;15.39;31.27;99779.47;5091911;28;19988;-43
2023/02/21 08:09:11;;;;;;;;;;;;;;;15.87;30.48;99774.88;5091741;28;19912;-41
2023/02/21 08:11:36;;;;;;;;;;;;;;;15.98;30.34;99776.72;5091806;28;19916;-42
2023/02/21 08:14:02;;;;;;;;;;;;;;;16.63;29.03;99773.88;5091634;28;19977;-42
2023/02/21 08:16:27;;;;;;;;;;;;;;;17.18;29.41;99778.56;5091470;28;19981;-43
2023/02/21 08:18:52;;;;;;;;;;;;;;;17.49;28.56;99768.22;5091515;28;19974;-43
2023/02/21 08:21:18;;;;;;;;;;;;;;;17.65;28.58;99772.75;5091317;28;19908;-42
2023/02/21 08:23:43;;;;;;;;;;;;;;;17.45;28.83;99764.41;5090746;28;20284;-42
2023/02/21 08:26:08;;;;;;;;;;;;;;;18.21;27.83;99758.38;5090903;28;20026;-43
2023/02/21 08:28:36;;;;;;;;;;;;;;;18.42;27.40;99772.84;5089961;28;19912;-42
2023/02/21 08:31:01;;;;;;;;;;;;;;;19.00;27.03;99765.84;5091281;28;19919;-43
2023/02/21 08:33:26;;;;;;;;;;;;;;;19.09;26.95;99766.16;5091299;28;20323;-42
2023/02/21 08:35:52;;;;;;;;;;;;;;;19.56;26.67;99751.88;5090708;28;20094;-42
2023/02/21 08:38:17;;;;;;;;;;;;;;;20.07;25.90;99748.59;5090718;28;19912;-41
2023/02/21 08:40:44;;;;;;;;;;;;;;;19.57;26.06;99753.47;5090535;28;19962;-42
2023/02/21 08:43:09;;;;;;;;;;;;;;;19.99;25.96;99760.72;5091070;28;19970;-41
2023/02/21 08:45:34;;;;;;;;;;;;;;;20.25;25.39;99747.28;5090593;28;19924;-40
2023/02/21 08:48:00;;;;;;;;;;;;;;;19.31;26.12;99747.97;5090581;28;19912;-43
2023/02/21 08:50:26;;;;;;;;;;;;;;;19.47;26.01;99743.47;5070252;28;19913;-40
2023/02/21 08:52:52;;;;;;;;;;;;;;;20.39;25.55;99739.44;5069929;28;19948;-41
2023/02/21 08:55:18;;;;;;;;;;;;;;;20.21;25.31;99738.09;5070183;28;20012;-42
2023/02/21 08:57:44;;;;;;;;;;;;;;;20.12;25.50;99745.88;5068874;28;20004;-42
2023/02/21 09:00:10;;;;;;;;;;;;;;;19.47;26.34;99732.66;5070247;28;20413;-41
2023/02/21 09:02:38;;;;;;;;;;;;;;;19.29;25.96;99725.03;5070154;28;19994;-42
2023/02/21 09:05:05;;;;;;;;;;;;;;;19.21;26.37;99741.69;5070067;28;19912;-40
2023/02/21 09:07:32;;;;;;;;;;;;;;;19.43;25.72;99728.88;5069806;28;20362;-42
2023/02/21 09:09:57;;;;;;;;;;;;;;;19.33;26.07;99737.72;5069405;28;20264;-42
2023/02/21 09:12:22;;;;;;;;;;;;;;;19.14;26.13;99734.63;5069719;28;19920;-41
2023/02/21 09:14:48;;;;;;;;;;;;;;;19.78;25.61;99722.03;5070043;28;19913;-42
2023/02/21 09:17:13;;;;;;;;;;;;;;;19.07;26.32;99722.47;5069836;28;20002;-44
2023/02/21 09:19:39;;;;;;;;;;;;;;;19.31;26.07;99725.56;5069638;28;19913;-41
2023/02/21 09:22:06;;;;;;;;;;;;;;;18.72;26.98;99724.63;5069751;28;20102;-41
2023/02/21 09:24:31;;;;;;;;;;;;;;;19.24;26.19;99704.22;5069603;28;19920;-41
2023/02/21 09:27:03;;;;;;;;;;;;;;;18.90;26.44;99711.81;5069697;28;19920;-41
2023/02/21 09:29:30;;;;;;;;;;;;;;;18.95;26.33;99698.38;5069851;28;19942;-42
2023/02/21 09:31:55;;;;;;;;;;;;;;;18.70;26.94;99702.50;5069554;28;20000;-42
2023/02/21 09:34:21;;;;;;;;;;;;;;;18.94;26.88;99697.59;5069483;28;20006;-42
2023/02/21 09:36:47;;;;;;;;;;;;;;;19.48;26.28;99701.91;5070042;28;19920;-42
2023/02/21 09:39:13;;;;;;;;;;;;;;;19.04;26.66;99696.00;5071518;28;20634;-42
2023/02/21 09:41:39;;;;;;;;;;;;;;;19.23;26.70;99693.69;5093151;28;20348;-42
2023/02/21 09:44:05;;;;;;;;;;;;;;;19.98;26.00;99694.28;5084514;28;19930;-42
2023/02/21 09:46:38;;;;;;;;;;;;;;;20.40;25.58;99678.94;5084856;28;19919;-42
2023/02/21 09:49:06;;;;;;;;;;;;;;;20.03;25.75;99688.06;5084411;28;20388;-42
2023/02/21 09:51:31;;;;;;;;;;;;;;;20.30;25.14;99685.94;5084454;28;19999;-41
2023/02/21 09:53:57;;;;;;;;;;;;;;;20.20;25.00;99685.94;5083797;28;19999;-41
2023/02/21 09:56:23;;;;;;;;;;;;;;;20.86;24.63;99674.31;5084885;28;19916;-42
2023/02/21 09:58:48;;;;;;;;;;;;;;;21.24;24.04;99663.13;5086127;28;19999;-42
2023/02/21 10:01:19;;;;;;;;;;;;;;;20.69;24.91;99663.81;5084823;28;19919;-41
2023/02/21 10:04:13;;;;;;;;;;;;;;;20.70;24.41;99668.13;5082176;28;20408;-43
2023/02/21 10:06:45;;;;;;;;;;;;;;;20.58;25.00;99654.06;5084996;28;20359;-41
2023/02/21 10:09:29;;;;;;;;;;;;;;;21.16;24.40;99650.19;5082770;28;20392;-41
2023/02/21 10:11:57;;;;;;;;;;;;;;;21.42;24.14;99646.28;5082252;28;19935;-42
2023/02/21 10:14:42;;;;;;;;;;;;;;;21.86;23.62;99642.84;5085668;28;19942;-41
2023/02/21 10:17:26;;;;;;;;;;;;;;;21.83;22.81;99629.03;5082692;28;19947;-41
2023/02/21 10:19:53;;;;;;;;;;;;;;;21.38;23.48;99634.41;5086889;28;20315;-42
2023/02/21 10:22:20;;;;;;;;;;;;;;;21.54;23.16;99623.53;5080227;28;19975;-42
2023/02/21 10:24:48;;;;;;;;;;;;;;;21.61;22.96;99621.31;5085166;27;19939;-43
2023/02/21 10:27:16;;;;;;;;;;;;;;;21.78;23.08;99620.94;5084225;28;19951;-41
2023/02/21 10:29:41;;;;;;;;;;;;;;;21.42;23.22;99610.31;5077449;28;19932;-41
2023/02/21 10:32:07;;;;;;;;;;;;;;;21.67;23.36;99612.88;5074106;28;19912;-41
2023/02/21 10:34:33;;;;;;;;;;;;;;;22.48;22.50;99606.34;5089048;28;19970;-42
2023/02/21 10:37:19;;;;;;;;;;;;;;;22.32;22.62;99589.41;5093554;28;19919;-40
2023/02/21 10:39:48;;;;;;;;;;;;;;;22.31;22.72;99595.91;5089265;28;19942;-42
2023/02/21 10:42:21;;;;;;;;;;;;;;;22.90;22.12;99585.81;5093549;28;19920;-40
2023/02/21 10:44:47;;;;;;;;;;;;;;;23.03;21.81;99587.88;5093454;28;19939;-41
2023/02/21 10:47:15;;;;;;;;;;;;;;;22.63;22.18;99584.50;5093655;28;20380;-41
2023/02/21 10:49:40;;;;;;;;;;;;;;;22.39;22.25;99579.03;5091474;28;20449;-42
2023/02/21 10:52:10;;;;;;;;;;;;;;;22.26;22.29;99575.09;5092251;28;19957;-42
2023/02/21 10:54:35;;;;;;;;;;;;;;;22.52;21.90;99574.84;5093475;28;19919;-44
2023/02/21 10:57:02;;;;;;;;;;;;;;;22.56;22.11;99563.16;5092693;28;19912;-41
2023/02/21 10:59:29;;;;;;;;;;;;;;;22.51;22.27;99565.91;5072108;28;19912;-41
2023/02/21 11:01:56;;;;;;;;;;;;;;;22.65;22.07;99563.31;5072900;28;19916;-43
2023/02/21 11:04:28;;;;;;;;;;;;;;;22.55;22.05;99558.00;5073444;28;20401;-42
2023/02/21 11:07:00;;;;;;;;;;;;;;;22.56;22.06;99555.03;5073133;28;19956;-41
2023/02/21 11:09:36;;;;;;;;;;;;;;;22.81;22.47;99550.41;5072883;28;19919;-42
2023/02/21 11:12:05;;;;;;;;;;;;;;;22.62;21.90;99553.88;5072973;28;20066;-42
2023/02/21 11:14:31;;;;;;;;;;;;;;;22.67;22.11;99547.56;5073130;28;19919;-42
2023/02/21 11:17:08;;;;;;;;;;;;;;;22.53;22.02;99538.53;5072887;28;19912;-42
2023/02/21 11:19:54;;;;;;;;;;;;;;;22.81;21.91;99534.13;5071341;28;19916;-43
2023/02/21 11:22:35;;;;;;;;;;;;;;;23.11;21.73;99530.22;5068509;28;19928;-42
2023/02/21 11:25:09;;;;;;;;;;;;;;;23.25;21.92;99516.78;5072954;28;19932;-42
2023/02/21 11:27:35;;;;;;;;;;;;;;;23.16;21.51;99518.53;5073059;28;19917;-43
2023/02/21 11:30:12;;;;;;;;;;;;;;;23.17;21.56;99514.69;5072908;28;19912;-42
2023/02/21 11:32:39;;;;;;;;;;;;;;;23.23;21.52;99500.78;5073094;28;20304;-42
2023/02/21 11:35:20;;;;;;;;;;;;;;;23.47;20.99;99509.94;5072732;28;19999;-41
2023/02/21 11:37:47;;;;;;;;;;;;;;;23.86;21.20;99498.75;5072644;28;19912;-42
2023/02/21 11:40:31;;;;;;;;;;;;;;;23.96;21.03;99492.31;5072590;28;19927;-41
2023/02/21 11:43:23;;;;;;;;;;;;;;;23.51;21.16;99481.88;5072446;28;20011;-42
2023/02/21 11:45:51;;;;;;;;;;;;;;;23.45;20.95;99488.50;5071339;28;20019;-42
2023/02/21 11:48:18;;;;;;;;;;;;;;;23.45;20.85;99483.06;5072684;28;19970;-41
2023/02/21 11:50:48;;;;;;;;;;;;;;;23.83;20.56;99471.38;5072610;28;20385;-42
2023/02/21 11:53:13;;;;;;;;;;;;;;;23.50;20.63;99471.34;5072203;28;19916;-42
2023/02/21 11:55:40;;;;;;;;;;;;;;;23.61;20.76;99465.44;5072513;28;20007;-43
2023/02/21 11:58:09;;;;;;;;;;;;;;;23.79;20.46;99458.38;5072159;28;20410;-43
2023/02/21 12:00:37;;;;;;;;;;;;;;;23.48;20.87;99455.34;5072337;28;19913;-41
2023/02/21 12:03:11;;;;;;;;;;;;;;;23.52;20.79;99445.50;5071346;28;19917;-41
2023/02/21 12:05:42;;;;;;;;;;;;;;;23.10;21.25;99443.72;5072353;28;19912;-43
2023/02/21 12:08:07;;;;;;;;;;;;;;;23.55;20.87;99444.91;5072122;28;20380;-43
2023/02/21 12:10:35;;;;;;;;;;;;;;;23.57;20.46;99426.41;5071805;28;19917;-41
2023/02/21 12:13:30;;;;;;;;;;;;;;;23.69;20.43;99422.41;5071946;28;20378;-41
2023/02/21 12:15:55;;;;;;;;;;;;;;;23.92;19.91;99413.31;5051797;28;19919;-41
2023/02/21 12:18:36;;;;;;;;;;;;;;;23.75;20.15;99404.91;5071422;28;19912;-42
2023/02/21 12:21:24;;;;;;;;;;;;;;;24.00;20.01;99401.75;5071777;28;19912;-40
2023/02/21 12:24:08;;;;;;;;;;;;;;;24.16;19.33;99399.56;5071073;28;19926;-42
2023/02/21 12:26:43;;;;;;;;;;;;;;;23.39;19.44;99384.59;5071851;28;19917;-42
2023/02/21 12:29:20;;;;;;;;;;;;;;;23.40;19.24;99388.94;5071211;28;19912;-47
2023/02/21 12:31:48;;;;;;;;;;;;;;;23.50;19.10;99395.31;5071306;28;20354;-47
2023/02/21 12:34:25;;;;;;;;;;;;;;;23.11;19.41;99380.19;5071310;28;20440;-49
2023/02/21 12:37:15;;;;;;;;;;;;;;;23.66;19.11;99377.63;5070875;28;19919;-42
2023/02/21 12:39:51;;;;;;;;;;;;;;;23.41;19.09;99370.75;5071080;28;20002;-41
2023/02/21 12:42:16;;;;;;;;;;;;;;;23.36;18.90;99376.25;5070756;28;19920;-41
2023/02/21 12:44:44;;;;;;;;;;;;;;;23.86;18.89;99365.63;5070720;28;19923;-42
2023/02/21 12:47:31;;;;;;;;;;;;;;;23.59;18.74;99358.22;5070426;28;19916;-41
2023/02/21 12:49:59;;;;;;;;;;;;;;;23.37;18.45;99359.66;5070695;28;20010;-41
2023/02/21 12:52:37;;;;;;;;;;;;;;;23.51;18.22;99354.25;5070410;28;20433;-42
2023/02/21 12:55:13;;;;;;;;;;;;;;;23.53;17.85;99376.50;5070426;28;19961;-41
2023/02/21 12:57:48;;;;;;;;;;;;;;;23.43;17.80;99366.59;5075609;28;19984;-41
2023/02/21 13:00:21;;;;;;;;;;;;;;;23.37;17.81;99356.94;5091053;28;19916;-42
2023/02/21 13:03:16;;;;;;;;;;;;;;;23.42;17.80;99353.34;5090585;28;20387;-42
2023/02/21 13:05:50;;;;;;;;;;;;;;;23.02;18.05;99359.13;5090011;28;19919;-41
2023/02/21 13:08:22;;;;;;;;;;;;;;;23.20;18.05;99352.06;5090756;28;19944;-42
2023/02/21 13:10:51;;;;;;;;;;;;;;;22.65;18.14;99349.09;5090576;28;20485;-46
2023/02/21 13:13:33;;;;;;;;;;;;;;;22.94;18.04;99348.13;5090336;28;19912;-43
2023/02/21 13:16:04;;;;;;;;;;;;;;;23.03;18.38;99351.81;5090698;28;19912;-42
2023/02/21 13:18:35;;;;;;;;;;;;;;;23.27;18.11;99343.56;5090653;28;19962;-41
2023/02/21 13:21:03;;;;;;;;;;;;;;;23.06;18.41;99343.09;5090865;28;19924;-42
2023/02/21 13:26:50;;;;;;;;;;;;;;;23.10;18.45;99340.59;5090611;28;19919;-41
2023/02/21 13:29:24;;;;;;;;;;;;;;;23.14;18.36;99330.75;5090295;28;19914;-42
2023/02/21 13:31:59;;;;;;;;;;;;;;;23.12;18.57;99346.53;5090541;28;19919;-41
2023/02/21 13:34:27;;;;;;;;;;;;;;;22.95;18.61;99338.91;5090608;28;19912;-42
2023/02/21 13:36:52;;;;;;;;;;;;;;;23.06;18.27;99353.94;5090271;28;19912;-43
2023/02/21 13:39:20;;;;;;;;;;;;;;;22.93;18.45;99343.81;5090941;28;19912;-42
2023/02/21 13:41:51;;;;;;;;;;;;;;;22.99;18.55;99332.56;5090742;28;19920;-42
2023/02/21 13:44:36;;;;;;;;;;;;;;;22.38;19.02;99322.63;5090456;28;19916;-41
2023/02/21 13:47:05;;;;;;;;;;;;;;;22.67;18.86;99327.09;5090205;28;19912;-41
2023/02/21 13:49:46;;;;;;;;;;;;;;;22.57;19.11;99317.22;5090702;28;19912;-41
2023/02/21 13:52:23;;;;;;;;;;;;;;;22.54;18.92;99329.47;5090421;28;20007;-41
2023/02/21 13:55:18;;;;;;;;;;;;;;;22.77;18.98;99324.22;5090380;28;20011;-43
2023/02/21 13:57:48;;;;;;;;;;;;;;;22.57;19.23;99319.94;5090000;28;20427;-41
2023/02/21 14:00:25;;;;;;;;;;;;;;;22.26;19.46;99323.06;5090287;28;20381;-42
2023/02/21 14:03:18;;;;;;;;;;;;;;;22.37;19.51;99321.00;5090010;28;19920;-42
2023/02/21 14:05:43;;;;;;;;;;;;;;;22.47;19.51;99314.66;5089144;28;19912;-42
2023/02/21 14:08:35;;;;;;;;;;;;;;;22.32;19.72;99321.91;5090214;28;19942;-42
2023/02/21 14:11:11;;;;;;;;;;;;;;;22.38;20.16;99317.22;5089775;28;19912;-42
2023/02/21 14:13:40;;;;;;;;;;;;;;;22.37;20.04;99305.56;5090432;28;19967;-41
2023/02/21 14:16:08;;;;;;;;;;;;;;;22.50;19.76;99309.44;5090172;28;19920;-42
2023/02/21 14:18:52;;;;;;;;;;;;;;;22.33;20.01;99296.41;5090211;28;19916;-41
2023/02/21 14:21:25;;;;;;;;;;;;;;;22.50;19.74;99304.00;5090501;28;19919;-41
2023/02/21 14:23:58;;;;;;;;;;;;;;;22.31;19.78;99305.91;5090389;28;19924;-43
2023/02/21 14:26:42;;;;;;;;;;;;;;;22.39;19.50;99313.38;5093836;28;20406;-41
2023/02/21 14:29:07;;;;;;;;;;;;;;;22.16;19.52;99309.59;5094220;28;20455;-42
2023/02/21 14:31:44;;;;;;;;;;;;;;;22.02;19.48;99306.81;5094252;28;19991;-43
2023/02/21 14:34:10;;;;;;;;;;;;;;;22.11;19.65;99305.06;5094145;28;20045;-43
2023/02/21 14:36:36;;;;;;;;;;;;;;;22.21;19.86;99302.22;5093743;28;19985;-42
2023/02/21 14:39:02;;;;;;;;;;;;;;;22.33;19.72;99304.56;5093635;28;19954;-42
2023/02/21 14:41:34;;;;;;;;;;;;;;;21.99;20.04;99302.78;5093679;28;20002;-42
2023/02/21 14:44:19;;;;;;;;;;;;;;;21.93;20.12;99297.69;5093595;28;19927;-44
2023/02/21 14:46:53;;;;;;;;;;;;;;;21.78;20.35;99304.91;5093835;28;19930;-42
2023/02/21 14:49:37;;;;;;;;;;;;;;;21.92;20.52;99298.81;5094013;28;19916;-42
2023/02/21 14:52:02;;;;;;;;;;;;;;;21.77;20.51;99300.59;5094337;28;19919;-43
2023/02/21 14:54:27;;;;;;;;;;;;;;;21.86;20.33;99306.19;5094222;28;19912;-43
2023/02/21 14:57:12;;;;;;;;;;;;;;;21.57;21.19;99298.94;5093425;28;19991;-42
2023/02/21 14:59:43;;;;;;;;;;;;;;;21.48;21.19;99297.94;5093464;28;19935;-42
2023/02/21 15:02:26;;;;;;;;;;;;;;;21.58;21.23;99292.41;5093254;28;19923;-43
2023/02/21 15:04:58;;;;;;;;;;;;;;;21.55;21.10;99294.88;5093210;28;19916;-43
2023/02/21 15:07:32;;;;;;;;;;;;;;;21.14;21.44;99295.25;5093357;28;19916;-43
2023/02/21 15:10:24;;;;;;;;;;;;;;;21.26;21.22;99285.66;5092849;28;20307;-42
2023/02/21 15:12:49;;;;;;;;;;;;;;;21.28;21.55;99294.31;5092566;28;19912;-42
2023/02/21 15:15:16;;;;;;;;;;;;;;;21.26;21.47;99295.66;5092974;28;20379;-43
2023/02/21 15:17:42;;;;;;;;;;;;;;;21.11;21.77;99298.50;5092836;28;19941;-41
2023/02/21 15:20:17;;;;;;;;;;;;;;;21.18;21.58;99293.59;5092496;28;19998;-42